sensor_id;sensor_type;location;lat;lon;timestamp;P1;durP1;ratioP1;P2;durP2;ratioP2
14272;SDS011;7220;49.450;11.052;2022-08-19T00:04:00;20.63;;;18.50;;
14272;SDS011;7220;49.450;11.052;2022-08-19T00:08:03;19.92;;;17.70;;
14272;SDS011;7220;49.450;11.052;2022-08-19T00:12:04;19.77;;;17.85;;
14272;SDS011;7220;49.450;11.052;2022-08-19T00:16:05;20.25;;;18.25;;
14272;SDS011;7220;49.450;11.052;2022-08-19T00:20:07;18.70;;;16.70;;
14272;SDS011;7220;49.450;11.052;2022-08-19T00:24:11;19.20;;;17.17;;
14272;SDS011;7220;49.450;11.052;2022-08-19T00:28:13;22.67;;;18.23;;
14272;SDS011;7220;49.450;11.052;2022-08-19T00:32:14;18.77;;;16.98;;
14272;SDS011;7220;49.450;11.052;2022-08-19T00:36:14;19.88;;;17.98;;
14272;SDS011;7220;49.450;11.052;2022-08-19T00:40:15;21.30;;;19.10;;
14272;SDS011;7220;49.450;11.052;2022-08-19T00:44:22;19.02;;;17.10;;
14272;SDS011;7220;49.450;11.052;2022-08-19T00:48:24;17.80;;;16.13;;
14272;SDS011;7220;49.450;11.052;2022-08-19T00:52:26;20.52;;;18.48;;
14272;SDS011;7220;49.450;11.052;2022-08-19T00:56:32;19.63;;;17.70;;
14272;SDS011;7220;49.450;11.052;2022-08-19T01:00:33;19.77;;;17.77;;
14272;SDS011;7220;49.450;11.052;2022-08-19T01:04:38;20.58;;;18.58;;
14272;SDS011;7220;49.450;11.052;2022-08-19T01:08:38;20.55;;;18.55;;
14272;SDS011;7220;49.450;11.052;2022-08-19T01:12:39;21.38;;;18.80;;
14272;SDS011;7220;49.450;11.052;2022-08-19T01:16:39;20.50;;;18.33;;
14272;SDS011;7220;49.450;11.052;2022-08-19T01:20:41;19.45;;;17.65;;
14272;SDS011;7220;49.450;11.052;2022-08-19T01:24:42;19.90;;;18.00;;
14272;SDS011;7220;49.450;11.052;2022-08-19T01:28:43;21.92;;;19.73;;
14272;SDS011;7220;49.450;11.052;2022-08-19T11:42:57;23.25;;;21.00;;
14272;SDS011;7220;49.450;11.052;2022-08-19T11:46:58;19.65;;;17.75;;
14272;SDS011;7220;49.450;11.052;2022-08-19T11:51:02;19.77;;;17.65;;
14272;SDS011;7220;49.450;11.052;2022-08-19T11:55:06;21.40;;;19.25;;
14272;SDS011;7220;49.450;11.052;2022-08-19T13:10:06;27.98;;;25.10;;
14272;SDS011;7220;49.450;11.052;2022-08-19T13:14:08;27.77;;;24.65;;
14272;SDS011;7220;49.450;11.052;2022-08-19T13:18:11;29.98;;;26.83;;
14272;SDS011;7220;49.450;11.052;2022-08-19T13:22:12;29.83;;;26.65;;
14272;SDS011;7220;49.450;11.052;2022-08-19T13:26:13;32.55;;;28.02;;
14272;SDS011;7220;49.450;11.052;2022-08-19T13:30:15;33.45;;;29.77;;
14272;SDS011;7220;49.450;11.052;2022-08-19T13:34:35;31.65;;;28.25;;
14272;SDS011;7220;49.450;11.052;2022-08-19T13:38:36;34.05;;;28.65;;
14272;SDS011;7220;49.450;11.052;2022-08-19T13:42:38;33.15;;;29.58;;
14272;SDS011;7220;49.450;11.052;2022-08-19T13:46:39;34.42;;;29.75;;
14272;SDS011;7220;49.450;11.052;2022-08-19T13:50:40;32.87;;;29.37;;
14272;SDS011;7220;49.450;11.052;2022-08-19T13:54:43;33.92;;;29.42;;
14272;SDS011;7220;49.450;11.052;2022-08-19T13:58:43;34.38;;;30.58;;
14272;SDS011;7220;49.450;11.052;2022-08-19T14:02:44;34.83;;;30.67;;
14272;SDS011;7220;49.450;11.052;2022-08-19T14:06:46;36.08;;;31.90;;
14272;SDS011;7220;49.450;11.052;2022-08-19T14:10:46;35.47;;;31.40;;
14272;SDS011;7220;49.450;11.052;2022-08-19T14:14:48;35.60;;;31.77;;
14272;SDS011;7220;49.450;11.052;2022-08-19T14:18:48;38.97;;;33.85;;
14272;SDS011;7220;49.450;11.052;2022-08-19T14:22:49;42.53;;;34.67;;
14272;SDS011;7220;49.450;11.052;2022-08-19T14:26:49;38.00;;;29.63;;
14272;SDS011;7220;49.450;11.052;2022-08-19T14:30:50;26.38;;;23.55;;
14272;SDS011;7220;49.450;11.052;2022-08-19T14:34:53;32.42;;;24.85;;
14272;SDS011;7220;49.450;11.052;2022-08-19T14:38:54;25.73;;;21.95;;
14272;SDS011;7220;49.450;11.052;2022-08-19T14:42:55;24.40;;;19.52;;
14272;SDS011;7220;49.450;11.052;2022-08-19T14:46:59;21.35;;;19.05;;
14272;SDS011;7220;49.450;11.052;2022-08-19T14:50:59;20.30;;;18.10;;
14272;SDS011;7220;49.450;11.052;2022-08-19T14:55:00;21.52;;;18.85;;
14272;SDS011;7220;49.450;11.052;2022-08-19T14:59:01;22.55;;;19.90;;
14272;SDS011;7220;49.450;11.052;2022-08-19T15:03:01;22.77;;;18.67;;
14272;SDS011;7220;49.450;11.052;2022-08-19T15:07:02;23.85;;;21.13;;
14272;SDS011;7220;49.450;11.052;2022-08-19T15:11:07;24.10;;;21.55;;
14272;SDS011;7220;49.450;11.052;2022-08-19T15:15:14;27.15;;;24.27;;
14272;SDS011;7220;49.450;11.052;2022-08-19T15:19:17;29.33;;;24.75;;
14272;SDS011;7220;49.450;11.052;2022-08-19T15:23:17;31.20;;;26.58;;
14272;SDS011;7220;49.450;11.052;2022-08-19T15:27:19;36.00;;;29.13;;
14272;SDS011;7220;49.450;11.052;2022-08-19T15:31:20;32.13;;;26.80;;
14272;SDS011;7220;49.450;11.052;2022-08-19T15:35:22;28.98;;;24.10;;
14272;SDS011;7220;49.450;11.052;2022-08-19T15:39:23;28.83;;;24.13;;
14272;SDS011;7220;49.450;11.052;2022-08-19T15:43:23;26.70;;;21.90;;
14272;SDS011;7220;49.450;11.052;2022-08-19T15:47:23;24.97;;;21.17;;
14272;SDS011;7220;49.450;11.052;2022-08-19T15:51:24;24.00;;;19.77;;
14272;SDS011;7220;49.450;11.052;2022-08-19T15:55:29;24.73;;;19.55;;
14272;SDS011;7220;49.450;11.052;2022-08-19T15:59:32;21.65;;;18.20;;
14272;SDS011;7220;49.450;11.052;2022-08-19T16:03:53;20.27;;;18.05;;
14272;SDS011;7220;49.450;11.052;2022-08-19T16:08:12;21.35;;;19.00;;
14272;SDS011;7220;49.450;11.052;2022-08-19T16:12:14;23.90;;;19.83;;
14272;SDS011;7220;49.450;11.052;2022-08-19T16:16:17;20.15;;;18.00;;
14272;SDS011;7220;49.450;11.052;2022-08-19T16:20:18;21.13;;;18.92;;
14272;SDS011;7220;49.450;11.052;2022-08-19T16:24:22;24.13;;;19.55;;
14272;SDS011;7220;49.450;11.052;2022-08-19T16:28:24;21.58;;;19.27;;
14272;SDS011;7220;49.450;11.052;2022-08-19T16:32:25;22.75;;;20.30;;
14272;SDS011;7220;49.450;11.052;2022-08-19T16:36:25;23.98;;;20.20;;
14272;SDS011;7220;49.450;11.052;2022-08-19T16:40:27;21.67;;;18.67;;
14272;SDS011;7220;49.450;11.052;2022-08-19T16:44:27;25.52;;;18.67;;
14272;SDS011;7220;49.450;11.052;2022-08-19T16:48:29;22.40;;;19.98;;
14272;SDS011;7220;49.450;11.052;2022-08-19T16:52:29;24.02;;;20.42;;
14272;SDS011;7220;49.450;11.052;2022-08-19T16:56:30;23.75;;;20.50;;
14272;SDS011;7220;49.450;11.052;2022-08-19T17:00:31;24.05;;;19.23;;
14272;SDS011;7220;49.450;11.052;2022-08-19T17:04:31;21.80;;;19.17;;
14272;SDS011;7220;49.450;11.052;2022-08-19T17:08:31;21.63;;;19.30;;
14272;SDS011;7220;49.450;11.052;2022-08-19T17:12:33;19.33;;;16.80;;
14272;SDS011;7220;49.450;11.052;2022-08-19T17:16:34;17.92;;;14.88;;
14272;SDS011;7220;49.450;11.052;2022-08-19T17:20:35;15.48;;;12.50;;
14272;SDS011;7220;49.450;11.052;2022-08-19T17:24:36;15.90;;;12.75;;
14272;SDS011;7220;49.450;11.052;2022-08-19T17:28:36;16.20;;;13.32;;
14272;SDS011;7220;49.450;11.052;2022-08-19T17:32:37;16.83;;;14.75;;
14272;SDS011;7220;49.450;11.052;2022-08-19T17:36:37;19.98;;;15.02;;
14272;SDS011;7220;49.450;11.052;2022-08-19T17:40:38;18.13;;;14.60;;
14272;SDS011;7220;49.450;11.052;2022-08-19T17:44:41;17.63;;;14.05;;
14272;SDS011;7220;49.450;11.052;2022-08-19T17:48:41;18.08;;;14.98;;
14272;SDS011;7220;49.450;11.052;2022-08-19T17:52:42;16.15;;;14.00;;
14272;SDS011;7220;49.450;11.052;2022-08-19T17:56:43;17.73;;;15.15;;
14272;SDS011;7220;49.450;11.052;2022-08-19T18:00:45;18.27;;;15.65;;
14272;SDS011;7220;49.450;11.052;2022-08-19T18:04:45;18.40;;;15.65;;
14272;SDS011;7220;49.450;11.052;2022-08-19T18:08:45;21.17;;;16.70;;
14272;SDS011;7220;49.450;11.052;2022-08-19T18:12:48;18.77;;;16.10;;
14272;SDS011;7220;49.450;11.052;2022-08-19T18:16:49;20.25;;;16.27;;
14272;SDS011;7220;49.450;11.052;2022-08-19T18:20:50;22.48;;;16.35;;
14272;SDS011;7220;49.450;11.052;2022-08-19T18:24:51;18.08;;;14.95;;
14272;SDS011;7220;49.450;11.052;2022-08-19T18:28:51;19.30;;;14.85;;
14272;SDS011;7220;49.450;11.052;2022-08-19T18:32:53;15.00;;;12.38;;
14272;SDS011;7220;49.450;11.052;2022-08-19T18:36:53;16.27;;;13.48;;
14272;SDS011;7220;49.450;11.052;2022-08-19T18:40:54;12.70;;;11.20;;
14272;SDS011;7220;49.450;11.052;2022-08-19T18:45:13;13.65;;;10.38;;
14272;SDS011;7220;49.450;11.052;2022-08-19T18:49:32;12.50;;;11.20;;
14272;SDS011;7220;49.450;11.052;2022-08-19T18:53:34;13.57;;;12.18;;
14272;SDS011;7220;49.450;11.052;2022-08-19T18:57:37;13.50;;;12.10;;
14272;SDS011;7220;49.450;11.052;2022-08-19T19:01:37;13.32;;;11.93;;
14272;SDS011;7220;49.450;11.052;2022-08-19T19:05:46;12.95;;;11.55;;
14272;SDS011;7220;49.450;11.052;2022-08-19T19:09:47;12.95;;;11.10;;
14272;SDS011;7220;49.450;11.052;2022-08-19T19:13:50;13.25;;;10.75;;
14272;SDS011;7220;49.450;11.052;2022-08-19T19:17:50;13.75;;;12.30;;
14272;SDS011;7220;49.450;11.052;2022-08-19T19:21:51;12.80;;;10.60;;
14272;SDS011;7220;49.450;11.052;2022-08-19T19:25:52;10.70;;;9.60;;
14272;SDS011;7220;49.450;11.052;2022-08-19T19:29:52;11.73;;;10.52;;
14272;SDS011;7220;49.450;11.052;2022-08-19T19:33:54;13.02;;;10.52;;
14272;SDS011;7220;49.450;11.052;2022-08-19T19:37:55;12.85;;;11.10;;
14272;SDS011;7220;49.450;11.052;2022-08-19T19:41:56;15.52;;;11.52;;
14272;SDS011;7220;49.450;11.052;2022-08-19T19:45:56;13.27;;;10.93;;
14272;SDS011;7220;49.450;11.052;2022-08-19T19:49:56;11.95;;;10.75;;
14272;SDS011;7220;49.450;11.052;2022-08-19T19:53:57;11.93;;;10.50;;
14272;SDS011;7220;49.450;11.052;2022-08-19T19:57:57;12.00;;;10.60;;
14272;SDS011;7220;49.450;11.052;2022-08-19T20:01:58;14.13;;;12.55;;
14272;SDS011;7220;49.450;11.052;2022-08-19T20:05:59;14.02;;;12.23;;
14272;SDS011;7220;49.450;11.052;2022-08-19T20:10:00;13.80;;;12.38;;
14272;SDS011;7220;49.450;11.052;2022-08-19T20:14:04;15.38;;;12.43;;
14272;SDS011;7220;49.450;11.052;2022-08-19T20:18:14;15.07;;;12.38;;
14272;SDS011;7220;49.450;11.052;2022-08-19T20:22:15;13.70;;;12.23;;
14272;SDS011;7220;49.450;11.052;2022-08-19T20:26:15;13.23;;;11.90;;
14272;SDS011;7220;49.450;11.052;2022-08-19T20:30:20;13.38;;;12.05;;
14272;SDS011;7220;49.450;11.052;2022-08-19T20:34:20;13.00;;;11.77;;
14272;SDS011;7220;49.450;11.052;2022-08-19T20:38:21;13.48;;;12.07;;
14272;SDS011;7220;49.450;11.052;2022-08-19T20:42:22;13.65;;;11.95;;
14272;SDS011;7220;49.450;11.052;2022-08-19T20:46:23;13.88;;;12.48;;
14272;SDS011;7220;49.450;11.052;2022-08-19T20:50:23;13.30;;;11.52;;
14272;SDS011;7220;49.450;11.052;2022-08-19T20:54:25;14.00;;;11.68;;
14272;SDS011;7220;49.450;11.052;2022-08-19T20:58:25;12.02;;;10.82;;
14272;SDS011;7220;49.450;11.052;2022-08-19T21:02:26;14.20;;;12.30;;
14272;SDS011;7220;49.450;11.052;2022-08-19T21:06:26;14.03;;;11.47;;
14272;SDS011;7220;49.450;11.052;2022-08-19T21:10:27;12.93;;;11.63;;
14272;SDS011;7220;49.450;11.052;2022-08-19T21:14:27;13.30;;;11.90;;
14272;SDS011;7220;49.450;11.052;2022-08-19T21:18:27;13.50;;;12.00;;
14272;SDS011;7220;49.450;11.052;2022-08-19T21:22:28;13.18;;;11.90;;
14272;SDS011;7220;49.450;11.052;2022-08-19T21:26:28;13.82;;;12.52;;
14272;SDS011;7220;49.450;11.052;2022-08-19T21:30:29;15.05;;;13.55;;
14272;SDS011;7220;49.450;11.052;2022-08-19T21:34:29;15.15;;;13.55;;
14272;SDS011;7220;49.450;11.052;2022-08-19T21:38:30;15.48;;;13.88;;
14272;SDS011;7220;49.450;11.052;2022-08-19T21:42:30;15.23;;;13.52;;
14272;SDS011;7220;49.450;11.052;2022-08-19T21:46:31;15.07;;;13.48;;
14272;SDS011;7220;49.450;11.052;2022-08-19T21:50:32;15.43;;;13.13;;
14272;SDS011;7220;49.450;11.052;2022-08-19T21:54:33;17.00;;;14.50;;
14272;SDS011;7220;49.450;11.052;2022-08-19T21:58:33;16.13;;;14.25;;
14272;SDS011;7220;49.450;11.052;2022-08-19T22:02:36;17.20;;;15.40;;
14272;SDS011;7220;49.450;11.052;2022-08-19T22:06:37;15.98;;;14.38;;
14272;SDS011;7220;49.450;11.052;2022-08-19T22:10:37;15.85;;;13.75;;
14272;SDS011;7220;49.450;11.052;2022-08-19T22:14:37;16.63;;;14.38;;
14272;SDS011;7220;49.450;11.052;2022-08-19T22:18:38;14.57;;;13.07;;
14272;SDS011;7220;49.450;11.052;2022-08-19T22:22:43;17.23;;;15.43;;
14272;SDS011;7220;49.450;11.052;2022-08-19T22:26:48;16.52;;;14.10;;
14272;SDS011;7220;49.450;11.052;2022-08-19T22:30:48;19.98;;;15.93;;
14272;SDS011;7220;49.450;11.052;2022-08-19T22:34:49;17.13;;;14.50;;
14272;SDS011;7220;49.450;11.052;2022-08-19T22:38:49;18.08;;;15.93;;
14272;SDS011;7220;49.450;11.052;2022-08-19T22:43:24;17.43;;;15.10;;
14272;SDS011;7220;49.450;11.052;2022-08-19T22:47:20;17.13;;;15.13;;
14272;SDS011;7220;49.450;11.052;2022-08-19T22:51:20;18.40;;;15.87;;
14272;SDS011;7220;49.450;11.052;2022-08-19T22:55:39;16.85;;;15.15;;
14272;SDS011;7220;49.450;11.052;2022-08-19T22:59:39;15.80;;;14.20;;
14272;SDS011;7220;49.450;11.052;2022-08-19T23:03:40;16.20;;;14.50;;
14272;SDS011;7220;49.450;11.052;2022-08-19T23:07:41;16.63;;;14.48;;
14272;SDS011;7220;49.450;11.052;2022-08-19T23:11:41;17.85;;;15.98;;
14272;SDS011;7220;49.450;11.052;2022-08-19T23:15:42;17.90;;;15.77;;
14272;SDS011;7220;49.450;11.052;2022-08-19T23:19:43;18.15;;;14.88;;
14272;SDS011;7220;49.450;11.052;2022-08-19T23:23:44;18.03;;;15.77;;
14272;SDS011;7220;49.450;11.052;2022-08-19T23:27:44;17.60;;;15.75;;
14272;SDS011;7220;49.450;11.052;2022-08-19T23:32:03;19.20;;;16.98;;
14272;SDS011;7220;49.450;11.052;2022-08-19T23:36:13;17.25;;;14.68;;
14272;SDS011;7220;49.450;11.052;2022-08-19T23:40:15;18.10;;;15.93;;
14272;SDS011;7220;49.450;11.052;2022-08-19T23:44:16;19.08;;;16.50;;
14272;SDS011;7220;49.450;11.052;2022-08-19T23:48:16;19.02;;;16.67;;
14272;SDS011;7220;49.450;11.052;2022-08-19T23:52:17;17.25;;;14.65;;
14272;SDS011;7220;49.450;11.052;2022-08-19T23:56:18;16.05;;;14.25;;
